Time;durP1;ratioP1;P1;durP2;ratioP2;P2;SDS_P1;SDS_P2;PMS_P1;PMS_P2;Temp;Humidity;BMP_temperature;BMP_pressure;BME280_temperature;BME280_humidity;BME280_pressure;Samples;Min_cycle;Max_cycle;Signal;HPM_P1;HPM_P2
2023/12/03 00:00:15;;;;;;;3.67;1.55;;;;;;;;;;5100980;28;20048;-75
2023/12/03 00:03:58;;;;;;;4.15;2.17;;;;;;;;;;5100503;28;20047;-73
2023/12/03 00:07:40;;;;;;;3.17;1.45;;;;;;;;;;5104569;28;20071;-74
2023/12/03 00:11:22;;;;;;;2.60;1.70;;;;;;;;;;5102906;28;20079;-73
2023/12/03 00:15:02;;;;;;;4.28;2.00;;;;;;;;;;5100680;28;20047;-72
2023/12/03 00:18:43;;;;;;;4.40;1.50;;;;;;;;;;5103335;28;20066;-73
2023/12/03 00:22:23;;;;;;;2.75;1.40;;;;;;;;;;5096781;28;20066;-71
2023/12/03 00:26:03;;;;;;;2.55;1.50;;;;;;;;;;5103351;28;20059;-72
2023/12/03 00:29:44;;;;;;;3.15;1.60;;;;;;;;;;5099303;28;20059;-71
2023/12/03 00:33:24;;;;;;;2.83;1.70;;;;;;;;;;5103872;28;20051;-70
2023/12/03 00:37:04;;;;;;;3.97;2.00;;;;;;;;;;5099759;28;20043;-69
2023/12/03 00:40:45;;;;;;;3.97;1.70;;;;;;;;;;5104595;28;20043;-70
2023/12/03 00:44:25;;;;;;;4.28;2.00;;;;;;;;;;5103754;28;20415;-70
2023/12/03 00:48:06;;;;;;;4.32;1.90;;;;;;;;;;5102493;28;20054;-70
2023/12/03 00:51:46;;;;;;;2.33;1.65;;;;;;;;;;5104081;28;20123;-71
2023/12/03 00:55:27;;;;;;;3.90;1.75;;;;;;;;;;5100812;28;20495;-70
2023/12/03 00:59:08;;;;;;;4.78;1.75;;;;;;;;;;5102262;28;20062;-69
2023/12/03 01:02:49;;;;;;;5.22;2.22;;;;;;;;;;5105652;28;20380;-70
2023/12/03 01:06:29;;;;;;;3.30;1.85;;;;;;;;;;5101389;28;20131;-70
2023/12/03 01:10:10;;;;;;;4.30;2.10;;;;;;;;;;5100035;28;20078;-67
2023/12/03 01:13:50;;;;;;;5.00;2.35;;;;;;;;;;5108431;28;20518;-70
2023/12/03 01:17:30;;;;;;;3.10;1.63;;;;;;;;;;5101895;28;20069;-69
2023/12/03 01:21:12;;;;;;;3.45;2.13;;;;;;;;;;5107531;28;20054;-67
2023/12/03 01:24:54;;;;;;;3.88;1.98;;;;;;;;;;5104488;28;20143;-69
2023/12/03 01:28:34;;;;;;;3.75;2.00;;;;;;;;;;5101078;28;20075;-69
2023/12/03 01:32:15;;;;;;;5.15;2.10;;;;;;;;;;5102903;28;20055;-70
2023/12/03 01:35:55;;;;;;;4.47;1.90;;;;;;;;;;5103996;28;20047;-70
2023/12/03 01:39:36;;;;;;;4.22;1.80;;;;;;;;;;5099931;28;20404;-71
2023/12/03 01:43:16;;;;;;;4.22;1.80;;;;;;;;;;5103977;28;20131;-69
2023/12/03 01:46:56;;;;;;;5.05;2.00;;;;;;;;;;5098893;28;20043;-70
2023/12/03 01:50:37;;;;;;;5.05;1.80;;;;;;;;;;5105193;28;20056;-69
2023/12/03 01:54:17;;;;;;;2.78;1.70;;;;;;;;;;5105570;28;20050;-69
2023/12/03 01:57:59;;;;;;;2.80;1.65;;;;;;;;;;5099533;28;20055;-71
2023/12/03 02:01:39;;;;;;;2.72;1.92;;;;;;;;;;5102473;28;20050;-68
2023/12/03 02:05:19;;;;;;;5.72;2.10;;;;;;;;;;5102045;28;20100;-69
2023/12/03 02:09:00;;;;;;;3.75;1.73;;;;;;;;;;5099188;28;20523;-69
2023/12/03 02:12:41;;;;;;;2.58;1.85;;;;;;;;;;5101109;28;20072;-69
2023/12/03 02:16:21;;;;;;;2.95;1.95;;;;;;;;;;5102999;28;20051;-69
2023/12/03 02:20:03;;;;;;;4.45;1.90;;;;;;;;;;5104601;28;20035;-70
2023/12/03 02:23:42;;;;;;;5.97;1.85;;;;;;;;;;5102271;28;20555;-69
2023/12/03 02:27:23;;;;;;;4.65;2.10;;;;;;;;;;5104596;28;20096;-68
2023/12/03 02:31:03;;;;;;;3.92;1.88;;;;;;;;;;5093745;28;20043;-69
2023/12/03 02:34:46;;;;;;;3.58;1.70;;;;;;;;;;5096865;28;20129;-69
2023/12/03 02:38:27;;;;;;;3.67;2.08;;;;;;;;;;5100567;28;20040;-68
2023/12/03 02:42:07;;;;;;;3.60;1.65;;;;;;;;;;5103568;28;20055;-67
2023/12/03 02:45:47;;;;;;;4.30;1.85;;;;;;;;;;5097367;28;20070;-68
2023/12/03 02:49:28;;;;;;;3.17;1.70;;;;;;;;;;5097851;28;20047;-67
2023/12/03 02:53:08;;;;;;;2.72;1.70;;;;;;;;;;5099220;28;20047;-69
2023/12/03 02:56:49;;;;;;;3.88;2.10;;;;;;;;;;5094731;28;20054;-68
2023/12/03 03:00:32;;;;;;;3.38;1.52;;;;;;;;;;5100058;28;20085;-69
2023/12/03 03:04:12;;;;;;;3.85;1.73;;;;;;;;;;5100909;28;20064;-70
2023/12/03 03:07:54;;;;;;;3.10;1.70;;;;;;;;;;5100157;28;20564;-69
2023/12/03 03:11:34;;;;;;;6.90;1.80;;;;;;;;;;5103800;28;20043;-68
2023/12/03 03:15:14;;;;;;;3.40;1.52;;;;;;;;;;5097190;28;20379;-68
2023/12/03 03:18:55;;;;;;;2.88;1.60;;;;;;;;;;5099179;28;20043;-68
2023/12/03 03:22:35;;;;;;;3.08;1.70;;;;;;;;;;5101702;28;20476;-69
2023/12/03 03:26:15;;;;;;;2.33;1.50;;;;;;;;;;5105992;28;20104;-69
2023/12/03 03:29:56;;;;;;;6.18;1.80;;;;;;;;;;5103397;28;20043;-69
2023/12/03 03:33:36;;;;;;;2.15;1.40;;;;;;;;;;5104496;28;20044;-68
2023/12/03 03:37:16;;;;;;;3.40;1.60;;;;;;;;;;5102192;28;20051;-70
2023/12/03 03:40:57;;;;;;;2.83;1.70;;;;;;;;;;5103463;28;20043;-68
2023/12/03 03:44:38;;;;;;;3.42;1.83;;;;;;;;;;5103218;28;20100;-69
2023/12/03 03:48:18;;;;;;;2.65;1.63;;;;;;;;;;5103187;28;20130;-68
2023/12/03 03:51:59;;;;;;;4.10;1.60;;;;;;;;;;5104628;28;20116;-68
2023/12/03 03:55:39;;;;;;;2.65;1.80;;;;;;;;;;5103989;27;20035;-69
2023/12/03 03:59:19;;;;;;;3.17;1.70;;;;;;;;;;5103809;27;20039;-69
2023/12/03 04:03:01;;;;;;;2.50;1.70;;;;;;;;;;5099838;28;20124;-69
2023/12/03 04:06:45;;;;;;;5.80;2.00;;;;;;;;;;5105826;28;20043;-69
2023/12/03 04:10:25;;;;;;;4.57;1.92;;;;;;;;;;5097714;28;20039;-69
2023/12/03 04:14:07;;;;;;;4.68;1.92;;;;;;;;;;5105803;28;20066;-69
2023/12/03 04:17:47;;;;;;;5.15;2.13;;;;;;;;;;5103752;28;20373;-69
2023/12/03 04:21:27;;;;;;;4.18;2.25;;;;;;;;;;5105352;28;20364;-69
2023/12/03 04:25:08;;;;;;;3.88;2.03;;;;;;;;;;5104682;28;20161;-70
2023/12/03 04:28:48;;;;;;;4.05;2.25;;;;;;;;;;5106444;28;20043;-68
2023/12/03 04:32:29;;;;;;;3.45;1.98;;;;;;;;;;5103493;28;20351;-69
2023/12/03 04:36:09;;;;;;;4.47;2.00;;;;;;;;;;5098246;28;20079;-68
2023/12/03 04:39:51;;;;;;;2.90;2.03;;;;;;;;;;5098402;28;20043;-67
2023/12/03 04:43:31;;;;;;;3.38;1.92;;;;;;;;;;5097586;28;20513;-69
2023/12/03 04:47:12;;;;;;;5.20;1.80;;;;;;;;;;5095104;28;20491;-70
2023/12/03 04:50:53;;;;;;;2.83;1.80;;;;;;;;;;5102175;28;20518;-68
2023/12/03 04:54:33;;;;;;;2.92;1.75;;;;;;;;;;5102508;28;20067;-68
2023/12/03 04:58:14;;;;;;;3.58;1.90;;;;;;;;;;5104338;27;20079;-69
2023/12/03 05:01:54;;;;;;;4.07;1.85;;;;;;;;;;5103855;28;20120;-70
2023/12/03 05:05:36;;;;;;;3.30;1.95;;;;;;;;;;5101632;28;20047;-69
2023/12/03 05:09:16;;;;;;;3.22;2.03;;;;;;;;;;5104836;28;20117;-68
2023/12/03 05:12:56;;;;;;;3.95;2.05;;;;;;;;;;5101801;28;20503;-68
2023/12/03 05:16:37;;;;;;;4.10;1.80;;;;;;;;;;5101081;28;20050;-69
2023/12/03 05:20:17;;;;;;;3.50;2.00;;;;;;;;;;5102441;28;20051;-69
2023/12/03 05:23:58;;;;;;;3.22;2.13;;;;;;;;;;5100155;28;20039;-69
2023/12/03 05:27:38;;;;;;;3.63;2.20;;;;;;;;;;5105100;28;20170;-69
2023/12/03 05:31:18;;;;;;;3.60;2.30;;;;;;;;;;5102805;28;20389;-68
2023/12/03 05:35:02;;;;;;;3.60;2.38;;;;;;;;;;5102750;28;20141;-69
2023/12/03 05:38:42;;;;;;;6.15;1.83;;;;;;;;;;5098338;28;20043;-68
2023/12/03 05:42:23;;;;;;;5.32;2.13;;;;;;;;;;5104115;28;20226;-71
2023/12/03 05:46:03;;;;;;;4.32;2.20;;;;;;;;;;5099493;28;20051;-70
2023/12/03 05:49:44;;;;;;;4.63;1.80;;;;;;;;;;5099507;28;20591;-70
2023/12/03 05:53:24;;;;;;;4.78;2.28;;;;;;;;;;5103215;28;20051;-68
2023/12/03 05:57:06;;;;;;;3.80;2.00;;;;;;;;;;5100662;28;20067;-69
2023/12/03 06:00:46;;;;;;;3.10;2.03;;;;;;;;;;5100795;28;20044;-69
2023/12/03 06:04:28;;;;;;;3.08;2.00;;;;;;;;;;5101540;28;20055;-69
2023/12/03 06:08:09;;;;;;;3.60;2.30;;;;;;;;;;5099648;28;20043;-69
2023/12/03 06:11:51;;;;;;;4.53;1.88;;;;;;;;;;5103499;27;20165;-68
2023/12/03 06:15:31;;;;;;;2.58;1.85;;;;;;;;;;5101513;28;20525;-69
2023/12/03 06:19:11;;;;;;;3.75;2.22;;;;;;;;;;5103014;28;20067;-68
2023/12/03 06:22:52;;;;;;;4.10;2.30;;;;;;;;;;5104708;28;20047;-68
2023/12/03 06:26:32;;;;;;;2.70;1.90;;;;;;;;;;5100270;28;20048;-67
2023/12/03 06:30:13;;;;;;;4.35;2.08;;;;;;;;;;5095474;28;20465;-70
2023/12/03 06:33:53;;;;;;;3.75;2.33;;;;;;;;;;5103736;28;20048;-70
2023/12/03 06:37:34;;;;;;;5.88;2.20;;;;;;;;;;5100003;28;20039;-70
2023/12/03 06:41:15;;;;;;;3.53;2.15;;;;;;;;;;5104339;28;20062;-69
2023/12/03 06:44:55;;;;;;;3.05;2.00;;;;;;;;;;5096777;28;20052;-69
2023/12/03 06:48:36;;;;;;;2.17;1.67;;;;;;;;;;5103888;28;20133;-69
2023/12/03 06:52:18;;;;;;;3.65;2.15;;;;;;;;;;5099030;28;20040;-71
2023/12/03 06:55:58;;;;;;;3.95;2.15;;;;;;;;;;5101451;28;20563;-68
2023/12/03 06:59:38;;;;;;;5.15;2.28;;;;;;;;;;5106132;27;20127;-68
2023/12/03 07:03:20;;;;;;;5.00;2.03;;;;;;;;;;5108766;28;20485;-68
2023/12/03 07:07:00;;;;;;;3.05;1.80;;;;;;;;;;5103882;28;20047;-70
2023/12/03 07:10:41;;;;;;;2.58;1.70;;;;;;;;;;5102574;28;20603;-69
2023/12/03 07:14:21;;;;;;;3.80;1.70;;;;;;;;;;5102040;28;20046;-69
2023/12/03 07:18:03;;;;;;;5.50;2.10;;;;;;;;;;5108956;28;20047;-70
2023/12/03 07:21:44;;;;;;;4.30;2.45;;;;;;;;;;5108692;28;20089;-69
2023/12/03 07:25:26;;;;;;;7.53;2.10;;;;;;;;;;5102559;27;20070;-71
2023/12/03 07:29:06;;;;;;;2.85;1.83;;;;;;;;;;5107818;28;20039;-70
2023/12/03 07:32:48;;;;;;;6.30;2.17;;;;;;;;;;5108559;28;20061;-72
2023/12/03 07:36:30;;;;;;;4.25;2.22;;;;;;;;;;5104186;28;20133;-76
2023/12/03 07:40:11;;;;;;;4.75;2.22;;;;;;;;;;5113801;28;20044;-70
2023/12/03 07:43:52;;;;;;;3.03;1.98;;;;;;;;;;5103452;28;20039;-70
2023/12/03 07:47:32;;;;;;;3.05;2.05;;;;;;;;;;5104749;28;20047;-71
2023/12/03 07:51:12;;;;;;;4.25;2.33;;;;;;;;;;5099866;28;20047;-71
2023/12/03 07:54:54;;;;;;;4.05;1.95;;;;;;;;;;5107812;28;20052;-69
2023/12/03 07:58:39;;;;;;;2.80;1.90;;;;;;;;;;5108012;28;20055;-71
2023/12/03 08:02:21;;;;;;;3.35;1.80;;;;;;;;;;5102450;28;20058;-71
2023/12/03 08:06:01;;;;;;;5.85;2.15;;;;;;;;;;5103586;28;20048;-70
2023/12/03 08:09:41;;;;;;;5.05;2.95;;;;;;;;;;5096219;28;20048;-73
2023/12/03 08:13:22;;;;;;;2.88;2.03;;;;;;;;;;5102667;28;20148;-71
2023/12/03 08:17:02;;;;;;;2.78;1.65;;;;;;;;;;5107523;27;20044;-69
2023/12/03 08:20:46;;;;;;;3.15;1.85;;;;;;;;;;5102953;28;20047;-72
2023/12/03 08:24:27;;;;;;;6.93;1.75;;;;;;;;;;5104568;28;20466;-71
2023/12/03 08:28:07;;;;;;;2.83;2.10;;;;;;;;;;5100304;28;20494;-72
2023/12/03 08:31:49;;;;;;;5.43;2.95;;;;;;;;;;5093890;28;20051;-70
2023/12/03 08:35:28;;;;;;;4.13;2.17;;;;;;;;;;5103331;28;20158;-71
2023/12/03 08:39:08;;;;;;;4.15;2.60;;;;;;;;;;5104832;28;20049;-70
2023/12/03 08:42:50;;;;;;;3.92;2.58;;;;;;;;;;5100309;28;20133;-72
2023/12/03 08:46:30;;;;;;;3.97;2.67;;;;;;;;;;5096860;28;20127;-71
2023/12/03 08:50:10;;;;;;;3.63;2.45;;;;;;;;;;5103779;28;20153;-70
2023/12/03 08:53:51;;;;;;;6.70;2.47;;;;;;;;;;5098655;28;20063;-69
2023/12/03 08:57:34;;;;;;;5.32;3.22;;;;;;;;;;5093634;27;20456;-72
2023/12/03 09:01:15;;;;;;;4.63;2.13;;;;;;;;;;5100712;28;20455;-71
2023/12/03 09:04:55;;;;;;;6.95;2.90;;;;;;;;;;5103913;28;20074;-69
2023/12/03 09:08:35;;;;;;;6.32;2.22;;;;;;;;;;5100255;28;20138;-71
2023/12/03 09:12:17;;;;;;;2.72;1.95;;;;;;;;;;5100947;28;20130;-72
2023/12/03 09:15:59;;;;;;;3.03;2.03;;;;;;;;;;5094481;28;20133;-72
2023/12/03 09:19:39;;;;;;;3.47;1.90;;;;;;;;;;5101052;28;20047;-70
2023/12/03 09:23:21;;;;;;;4.25;1.80;;;;;;;;;;5098382;28;20135;-72
2023/12/03 09:27:01;;;;;;;2.67;1.70;;;;;;;;;;5103092;28;20576;-72
2023/12/03 09:30:42;;;;;;;6.90;1.63;;;;;;;;;;5094947;28;20440;-74
2023/12/03 09:34:22;;;;;;;3.83;1.77;;;;;;;;;;5102082;28;20113;-73
2023/12/03 09:38:04;;;;;;;2.20;1.55;;;;;;;;;;5102638;28;20040;-73
2023/12/03 09:41:45;;;;;;;2.65;1.60;;;;;;;;;;5098220;28;20051;-77
2023/12/03 09:45:32;;;;;;;9.10;1.73;;;;;;;;;;5098750;28;20488;-73
2023/12/03 09:49:14;;;;;;;3.42;1.83;;;;;;;;;;5097564;28;20538;-71
2023/12/03 09:52:54;;;;;;;2.97;1.70;;;;;;;;;;5103041;28;20138;-72
2023/12/03 09:56:34;;;;;;;3.08;1.70;;;;;;;;;;5106258;28;20047;-74
2023/12/03 10:00:16;;;;;;;4.82;1.50;;;;;;;;;;5097347;28;20449;-73
2023/12/03 10:03:56;;;;;;;3.35;1.60;;;;;;;;;;5103452;28;20085;-73
2023/12/03 10:07:38;;;;;;;4.18;1.50;;;;;;;;;;5101141;28;20055;-72
2023/12/03 10:11:21;;;;;;;2.03;1.30;;;;;;;;;;5107246;28;20143;-71
2023/12/03 10:15:00;;;;;;;3.20;1.55;;;;;;;;;;5095328;28;20047;-74
2023/12/03 10:18:40;;;;;;;3.35;1.50;;;;;;;;;;5093206;28;20176;-70
2023/12/03 10:22:23;;;;;;;3.13;1.50;;;;;;;;;;5100087;28;20040;-71
2023/12/03 10:26:05;;;;;;;2.67;1.55;;;;;;;;;;5091014;28;20063;-72
2023/12/03 10:29:46;;;;;;;2.40;1.52;;;;;;;;;;5098999;28;20047;-71
2023/12/03 10:33:25;;;;;;;2.22;1.50;;;;;;;;;;5096852;28;20063;-71
2023/12/03 10:37:09;;;;;;;2.28;1.50;;;;;;;;;;5101301;28;20049;-73
2023/12/03 10:40:50;;;;;;;3.13;1.42;;;;;;;;;;5098941;28;20119;-72
2023/12/03 10:44:40;;;;;;;2.63;1.40;;;;;;;;;;5101051;28;20043;-72
2023/12/03 10:48:22;;;;;;;2.33;1.40;;;;;;;;;;5096751;28;20051;-71
2023/12/03 10:52:03;;;;;;;2.33;1.50;;;;;;;;;;5105614;28;20383;-72
2023/12/03 10:55:44;;;;;;;2.17;1.50;;;;;;;;;;5104574;28;20047;-70
2023/12/03 10:59:31;;;;;;;2.75;1.63;;;;;;;;;;5086582;28;20050;-71
2023/12/03 11:03:17;;;;;;;4.93;1.20;;;;;;;;;;5088148;28;20055;-72
2023/12/03 11:07:01;;;;;;;12.55;1.55;;;;;;;;;;5095877;28;20044;-71
2023/12/03 11:10:41;;;;;;;1.98;1.20;;;;;;;;;;5095736;28;20048;-71
2023/12/03 11:14:24;;;;;;;3.58;1.20;;;;;;;;;;5096113;28;20063;-74
2023/12/03 11:18:16;;;;;;;1.63;1.00;;;;;;;;;;5093830;28;20032;-73
2023/12/03 11:21:51;;;;;;;2.83;1.02;;;;;;;;;;5094172;28;20047;-75
2023/12/03 11:25:38;;;;;;;2.10;0.98;;;;;;;;;;5100891;28;20071;-75
2023/12/03 11:29:34;;;;;;;2.65;1.40;;;;;;;;;;5100901;28;20187;-75
2023/12/03 11:33:17;;;;;;;2.17;1.30;;;;;;;;;;5101452;28;20047;-73
2023/12/03 11:37:01;;;;;;;2.47;1.17;;;;;;;;;;5105060;28;20039;-74
2023/12/03 11:40:57;;;;;;;3.45;1.48;;;;;;;;;;5096371;28;20050;-73
2023/12/03 11:44:38;;;;;;;4.43;1.10;;;;;;;;;;5099247;28;20059;-76
2023/12/03 11:48:29;;;;;;;2.92;1.10;;;;;;;;;;5101623;28;20076;-72
2023/12/03 11:52:08;;;;;;;2.30;0.90;;;;;;;;;;5102953;28;20310;-73
2023/12/03 11:55:54;;;;;;;0.80;0.70;;;;;;;;;;5105470;28;20102;-73
2023/12/03 11:59:35;;;;;;;3.53;1.23;;;;;;;;;;5100675;28;20375;-74
2023/12/03 12:03:17;;;;;;;0.63;0.60;;;;;;;;;;5102920;28;20043;-75
2023/12/03 12:07:06;;;;;;;1.13;0.90;;;;;;;;;;5104470;28;20459;-72
2023/12/03 12:10:47;;;;;;;3.25;1.27;;;;;;;;;;5103146;28;20389;-74
2023/12/03 12:14:28;;;;;;;7.07;1.63;;;;;;;;;;5103886;28;20044;-76
2023/12/03 12:18:10;;;;;;;1.15;0.95;;;;;;;;;;5107338;28;20070;-71
2023/12/03 12:21:50;;;;;;;2.00;1.20;;;;;;;;;;5107935;28;20128;-72
2023/12/03 12:25:30;;;;;;;1.48;0.75;;;;;;;;;;5105410;28;20149;-73
2023/12/03 12:29:12;;;;;;;1.58;0.98;;;;;;;;;;5104113;28;20541;-72
2023/12/03 12:32:54;;;;;;;1.42;1.10;;;;;;;;;;5105387;28;20049;-74
2023/12/03 12:36:35;;;;;;;2.22;1.10;;;;;;;;;;5104574;28;20240;-74
2023/12/03 12:40:31;;;;;;;2.30;1.17;;;;;;;;;;5105975;28;20044;-71
2023/12/03 12:44:14;;;;;;;1.63;0.93;;;;;;;;;;5097765;28;20036;-72
2023/12/03 12:47:55;;;;;;;1.48;0.90;;;;;;;;;;5099857;28;20039;-72
2023/12/03 12:51:42;;;;;;;1.92;1.25;;;;;;;;;;5100521;28;20075;-73
2023/12/03 12:55:27;;;;;;;1.70;1.25;;;;;;;;;;5103294;28;20051;-71
2023/12/03 12:59:08;;;;;;;1.50;1.10;;;;;;;;;;5102620;28;20098;-73
2023/12/03 13:02:49;;;;;;;3.72;1.17;;;;;;;;;;5102662;28;20048;-72
2023/12/03 13:06:31;;;;;;;2.97;0.90;;;;;;;;;;5102080;28;20047;-72
2023/12/03 13:10:12;;;;;;;3.40;1.95;;;;;;;;;;5105943;28;20051;-73
2023/12/03 13:13:52;;;;;;;0.93;0.80;;;;;;;;;;5103513;28;20073;-71
2023/12/03 13:17:32;;;;;;;1.45;1.05;;;;;;;;;;5103406;28;20118;-72
2023/12/03 13:21:13;;;;;;;1.90;1.27;;;;;;;;;;5097740;28;20083;-73
2023/12/03 13:24:54;;;;;;;3.47;1.77;;;;;;;;;;5098026;28;20051;-72
2023/12/03 13:28:34;;;;;;;1.65;1.25;;;;;;;;;;5100268;28;20162;-73
2023/12/03 13:32:16;;;;;;;4.55;2.47;;;;;;;;;;5099930;28;20395;-73
2023/12/03 13:35:56;;;;;;;5.55;2.55;;;;;;;;;;5096062;28;20123;-74
2023/12/03 13:39:36;;;;;;;7.68;3.50;;;;;;;;;;5104581;28;20047;-73
2023/12/03 13:43:17;;;;;;;11.65;6.40;;;;;;;;;;5106091;28;20079;-74
2023/12/03 13:46:57;;;;;;;6.93;2.83;;;;;;;;;;5095746;28;20039;-72
2023/12/03 13:50:38;;;;;;;4.97;2.42;;;;;;;;;;5094310;28;20062;-69
2023/12/03 13:54:18;;;;;;;4.93;2.58;;;;;;;;;;5100335;28;20094;-74
2023/12/03 13:57:59;;;;;;;10.80;2.90;;;;;;;;;;5098693;28;20035;-72
2023/12/03 14:01:40;;;;;;;3.97;2.13;;;;;;;;;;5102407;28;20074;-70
2023/12/03 14:05:21;;;;;;;3.55;1.92;;;;;;;;;;5102542;28;20040;-69
2023/12/03 14:09:02;;;;;;;4.47;2.22;;;;;;;;;;5096987;28;20039;-70
2023/12/03 14:12:04;;;;;;;2.58;1.70;;;;;;;;;;5092923;28;20036;-70
2023/12/03 14:15:12;;;;;;;4.38;2.45;;;;;;;;;;5105616;28;20093;-72
2023/12/03 14:18:52;;;;;;;4.20;2.15;;;;;;;;;;5103590;28;20039;-70
2023/12/03 14:22:32;;;;;;;5.25;2.90;;;;;;;;;;5105747;28;20495;-70
2023/12/03 14:26:12;;;;;;;6.80;2.25;;;;;;;;;;5101126;28;20128;-74
2023/12/03 14:29:53;;;;;;;5.30;1.92;;;;;;;;;;5102259;28;20059;-70
2023/12/03 14:33:33;;;;;;;4.38;2.00;;;;;;;;;;5102265;28;20571;-75
2023/12/03 14:37:13;;;;;;;4.00;2.30;;;;;;;;;;5103949;28;20051;-71
2023/12/03 14:40:56;;;;;;;2.78;1.70;;;;;;;;;;5092692;28;20515;-70
2023/12/03 14:44:36;;;;;;;6.35;2.90;;;;;;;;;;5103284;28;20725;-71
2023/12/03 14:48:17;;;;;;;4.07;1.80;;;;;;;;;;5104011;28;20086;-71
2023/12/03 14:51:58;;;;;;;4.18;1.90;;;;;;;;;;5106815;28;20100;-72
2023/12/03 14:55:39;;;;;;;3.22;1.80;;;;;;;;;;5103850;28;20130;-72
2023/12/03 14:59:19;;;;;;;2.55;1.58;;;;;;;;;;5105600;28;20096;-71
2023/12/03 15:03:00;;;;;;;5.32;1.70;;;;;;;;;;5100046;28;20047;-72
2023/12/03 15:06:41;;;;;;;2.58;1.40;;;;;;;;;;5108043;28;20074;-68
2023/12/03 15:10:24;;;;;;;2.78;1.38;;;;;;;;;;5102995;28;20461;-70
2023/12/03 15:14:04;;;;;;;2.80;1.67;;;;;;;;;;5106912;28;20051;-71
2023/12/03 15:17:44;;;;;;;2.42;1.50;;;;;;;;;;5097914;28;20044;-71
2023/12/03 15:21:30;;;;;;;3.20;1.35;;;;;;;;;;5104413;28;20036;-71
2023/12/03 15:25:12;;;;;;;2.80;1.60;;;;;;;;;;5104137;28;20062;-70
2023/12/03 15:28:52;;;;;;;3.42;1.35;;;;;;;;;;5096277;28;20064;-71
2023/12/03 15:32:34;;;;;;;3.30;1.33;;;;;;;;;;5108271;28;20059;-71
2023/12/03 15:36:17;;;;;;;5.18;1.40;;;;;;;;;;5106244;28;20114;-71
2023/12/03 15:39:59;;;;;;;2.58;1.38;;;;;;;;;;5107399;28;20090;-68
2023/12/03 15:43:41;;;;;;;5.75;1.55;;;;;;;;;;5105867;28;20039;-70
2023/12/03 15:47:21;;;;;;;3.03;1.73;;;;;;;;;;5106021;28;20040;-71
2023/12/03 15:51:02;;;;;;;6.60;2.03;;;;;;;;;;5105135;28;20115;-70
2023/12/03 15:54:46;;;;;;;7.50;2.40;;;;;;;;;;5104805;28;20043;-70
2023/12/03 15:58:24;;;;;;;2.17;1.40;;;;;;;;;;5103564;28;20052;-69
2023/12/03 16:02:04;;;;;;;3.30;1.60;;;;;;;;;;5110797;27;20236;-70
2023/12/03 16:05:44;;;;;;;4.97;1.63;;;;;;;;;;5100996;28;20051;-66
2023/12/03 16:09:26;;;;;;;2.47;1.60;;;;;;;;;;5098497;28;20474;-64
2023/12/03 16:13:07;;;;;;;2.45;1.30;;;;;;;;;;5103028;28;20078;-62
2023/12/03 16:16:48;;;;;;;3.30;1.30;;;;;;;;;;5099351;28;20043;-66
2023/12/03 16:20:29;;;;;;;2.58;1.30;;;;;;;;;;5098674;28;20047;-66
2023/12/03 16:24:11;;;;;;;4.30;1.50;;;;;;;;;;5103894;28;20483;-66
2023/12/03 16:27:50;;;;;;;3.33;1.33;;;;;;;;;;5103642;28;20047;-66
2023/12/03 16:31:32;;;;;;;2.67;1.38;;;;;;;;;;5098040;28;20592;-65
2023/12/03 16:35:12;;;;;;;2.90;1.45;;;;;;;;;;5107437;28;20426;-64
2023/12/03 16:38:53;;;;;;;5.45;1.70;;;;;;;;;;5087804;28;20227;-64
2023/12/03 16:42:34;;;;;;;2.53;1.50;;;;;;;;;;5087044;28;20066;-66
2023/12/03 16:46:15;;;;;;;6.47;1.70;;;;;;;;;;5092825;28;20052;-66
2023/12/03 16:49:55;;;;;;;2.10;1.50;;;;;;;;;;5095321;28;20079;-67
2023/12/03 16:53:36;;;;;;;4.47;1.50;;;;;;;;;;5103903;28;20504;-65
2023/12/03 16:57:20;;;;;;;7.53;1.80;;;;;;;;;;5101868;28;20055;-64
2023/12/03 17:00:59;;;;;;;3.75;1.50;;;;;;;;;;5102641;28;20040;-66
2023/12/03 17:04:40;;;;;;;6.22;1.80;;;;;;;;;;5097402;28;20044;-64
2023/12/03 17:08:22;;;;;;;3.08;1.90;;;;;;;;;;5103658;28;20069;-66
2023/12/03 17:12:01;;;;;;;4.10;1.70;;;;;;;;;;5105345;28;20415;-66
2023/12/03 17:15:42;;;;;;;3.08;1.80;;;;;;;;;;5102097;28;20043;-65
2023/12/03 17:19:22;;;;;;;8.85;2.45;;;;;;;;;;5099439;28;20565;-64
2023/12/03 17:23:04;;;;;;;8.98;3.03;;;;;;;;;;5102633;28;20065;-65
2023/12/03 17:26:45;;;;;;;3.78;1.95;;;;;;;;;;5098613;28;20079;-64
2023/12/03 17:30:27;;;;;;;8.07;1.77;;;;;;;;;;5098578;28;20515;-64
2023/12/03 17:34:07;;;;;;;4.93;1.60;;;;;;;;;;5098920;28;20100;-67
2023/12/03 17:37:48;;;;;;;3.92;1.60;;;;;;;;;;5099339;28;20039;-66
2023/12/03 17:41:30;;;;;;;4.30;1.95;;;;;;;;;;5096945;28;20142;-66
2023/12/03 17:45:11;;;;;;;5.28;2.53;;;;;;;;;;5098605;27;20051;-65
2023/12/03 17:48:52;;;;;;;4.78;2.10;;;;;;;;;;5095098;28;20397;-64
2023/12/03 17:52:33;;;;;;;5.20;2.08;;;;;;;;;;5106462;28;20057;-68
2023/12/03 17:56:13;;;;;;;5.32;2.10;;;;;;;;;;5095257;28;20121;-65
2023/12/03 17:59:55;;;;;;;9.05;2.25;;;;;;;;;;5105718;28;20044;-66
2023/12/03 18:03:36;;;;;;;6.05;2.40;;;;;;;;;;5097512;28;20044;-67
2023/12/03 18:07:16;;;;;;;5.38;2.20;;;;;;;;;;5103129;28;20134;-64
2023/12/03 18:10:56;;;;;;;4.55;1.80;;;;;;;;;;5107477;28;20126;-65
2023/12/03 18:14:39;;;;;;;9.88;2.40;;;;;;;;;;5097040;28;20376;-66
2023/12/03 18:18:17;;;;;;;7.57;2.30;;;;;;;;;;5096911;28;20067;-63
2023/12/03 18:22:00;;;;;;;5.60;2.30;;;;;;;;;;5102497;28;20137;-66
2023/12/03 18:25:41;;;;;;;7.57;2.40;;;;;;;;;;5087903;28;20059;-63
2023/12/03 18:29:21;;;;;;;5.95;2.20;;;;;;;;;;5081638;28;20112;-65
2023/12/03 18:33:01;;;;;;;6.93;2.25;;;;;;;;;;5090747;28;20403;-65
2023/12/03 18:36:42;;;;;;;5.63;2.40;;;;;;;;;;5083896;28;20051;-63
2023/12/03 18:40:23;;;;;;;4.65;2.53;;;;;;;;;;5085554;28;20075;-63
2023/12/03 18:44:03;;;;;;;8.77;2.10;;;;;;;;;;5097751;28;20469;-65
2023/12/03 18:47:44;;;;;;;5.93;2.10;;;;;;;;;;5095846;28;20035;-65
2023/12/03 18:51:24;;;;;;;10.10;2.50;;;;;;;;;;5095729;28;20392;-66
2023/12/03 18:55:04;;;;;;;7.35;2.00;;;;;;;;;;5095485;28;20039;-65
2023/12/03 18:58:45;;;;;;;7.07;2.60;;;;;;;;;;5090458;28;20050;-66
2023/12/03 19:02:25;;;;;;;7.75;2.40;;;;;;;;;;5091950;28;20327;-66
2023/12/03 19:06:05;;;;;;;9.93;3.17;;;;;;;;;;5100074;28;20055;-69
2023/12/03 19:09:47;;;;;;;12.23;5.10;;;;;;;;;;5103253;28;20052;-68
2023/12/03 19:13:29;;;;;;;15.00;5.93;;;;;;;;;;5094743;28;20044;-69
2023/12/03 19:17:08;;;;;;;13.93;5.97;;;;;;;;;;5096993;28;20043;-69
2023/12/03 19:20:49;;;;;;;17.48;6.20;;;;;;;;;;5094157;28;20115;-70
2023/12/03 19:24:30;;;;;;;17.15;6.47;;;;;;;;;;5083297;28;20043;-70
2023/12/03 19:28:10;;;;;;;17.00;5.55;;;;;;;;;;5078036;28;20043;-70
2023/12/03 19:31:52;;;;;;;13.57;5.70;;;;;;;;;;5084281;28;20048;-68
2023/12/03 19:35:36;;;;;;;12.73;5.80;;;;;;;;;;5093207;28;20074;-68
2023/12/03 19:39:17;;;;;;;12.55;6.40;;;;;;;;;;5100729;28;20048;-67
2023/12/03 19:42:57;;;;;;;14.07;6.38;;;;;;;;;;5100707;28;20047;-68
2023/12/03 19:46:37;;;;;;;14.30;6.22;;;;;;;;;;5097753;28;20052;-68
2023/12/03 19:50:17;;;;;;;10.65;5.55;;;;;;;;;;5101436;28;20040;-72
2023/12/03 19:53:58;;;;;;;14.20;7.22;;;;;;;;;;5095679;28;20581;-70
2023/12/03 19:57:40;;;;;;;13.35;6.32;;;;;;;;;;5097513;28;20090;-69
2023/12/03 20:01:23;;;;;;;12.77;6.25;;;;;;;;;;5097585;28;20398;-68
2023/12/03 20:05:02;;;;;;;13.60;5.47;;;;;;;;;;5098049;28;20046;-68
2023/12/03 20:08:42;;;;;;;11.80;4.93;;;;;;;;;;5104660;28;20365;-69
2023/12/03 20:12:29;;;;;;;7.97;5.05;;;;;;;;;;5099509;28;20518;-70
2023/12/03 20:16:03;;;;;;;8.68;4.43;;;;;;;;;;5099687;27;20051;-72
2023/12/03 20:19:45;;;;;;;10.50;4.55;;;;;;;;;;5100660;28;20051;-69
2023/12/03 20:23:26;;;;;;;13.75;4.90;;;;;;;;;;5095182;28;20048;-70
2023/12/03 20:27:10;;;;;;;13.00;4.97;;;;;;;;;;5102782;28;20101;-68
2023/12/03 20:30:47;;;;;;;12.57;4.72;;;;;;;;;;5097686;28;20749;-72
2023/12/03 20:34:31;;;;;;;15.45;4.90;;;;;;;;;;5096797;28;20043;-70
2023/12/03 20:38:09;;;;;;;7.82;4.45;;;;;;;;;;5101895;28;20492;-67
2023/12/03 20:41:56;;;;;;;9.02;4.65;;;;;;;;;;5100678;28;20071;-69
2023/12/03 20:45:38;;;;;;;20.08;8.68;;;;;;;;;;5094447;28;21531;-67
2023/12/03 20:49:25;;;;;;;10.80;5.60;;;;;;;;;;5077025;28;20048;-69
2023/12/03 20:53:03;;;;;;;13.65;5.65;;;;;;;;;;5092170;28;20122;-67
2023/12/03 20:56:44;;;;;;;14.60;5.18;;;;;;;;;;5094771;28;20705;-69
2023/12/03 21:00:25;;;;;;;13.77;5.88;;;;;;;;;;5098277;28;20310;-69
2023/12/03 21:04:07;;;;;;;17.35;5.30;;;;;;;;;;5098284;28;20749;-70
2023/12/03 21:07:49;;;;;;;17.38;6.18;;;;;;;;;;5097203;28;20051;-68
2023/12/03 21:10:49;;;;;;;20.40;8.05;;;;;;;;;;5095385;27;20036;-68
2023/12/03 21:13:19;;;;;;;15.32;7.53;;;;;;;;;;5100138;27;20119;-69
2023/12/03 21:15:45;;;;;;;33.67;17.08;;;;;;;;;;5098959;28;20046;-67
2023/12/03 21:18:13;;;;;;;16.85;7.55;;;;;;;;;;5099292;28;20138;-67
2023/12/03 21:20:40;;;;;;;15.20;6.65;;;;;;;;;;5105777;28;20039;-68
2023/12/03 21:23:08;;;;;;;12.85;6.88;;;;;;;;;;5107195;28;20072;-67
2023/12/03 21:25:34;;;;;;;12.35;6.85;;;;;;;;;;5085377;28;20052;-67
2023/12/03 21:28:04;;;;;;;18.90;8.32;;;;;;;;;;5096973;28;20468;-68
2023/12/03 21:30:34;;;;;;;12.85;6.32;;;;;;;;;;5100596;27;20052;-68
2023/12/03 21:33:02;;;;;;;13.93;6.53;;;;;;;;;;5101499;28;20418;-70
2023/12/03 21:35:30;;;;;;;13.57;6.13;;;;;;;;;;5101245;28;20537;-68
2023/12/03 21:37:58;;;;;;;15.52;6.68;;;;;;;;;;5099321;28;20083;-66
2023/12/03 21:40:27;;;;;;;19.25;6.88;;;;;;;;;;5086311;28;20491;-68
2023/12/03 21:42:54;;;;;;;10.55;6.05;;;;;;;;;;5082036;28;20055;-67